createdAt,value
2023-05-25T00:00:31.349Z,10.40
2023-05-25T00:01:31.300Z,10.43
2023-05-25T00:02:31.378Z,10.46
2023-05-25T00:03:32.167Z,10.47
2023-05-25T00:04:31.288Z,10.44
2023-05-25T00:05:31.268Z,10.43
2023-05-25T00:06:31.245Z,10.43
2023-05-25T00:07:31.235Z,10.43
2023-05-25T00:08:31.336Z,10.44
2023-05-25T00:09:31.219Z,10.44
2023-05-25T00:10:31.209Z,10.47
2023-05-25T00:11:31.160Z,10.51
2023-05-25T00:12:31.154Z,10.52
2023-05-25T00:13:31.130Z,10.53
2023-05-25T00:14:31.227Z,10.53
2023-05-25T00:15:31.133Z,10.46
2023-05-25T00:16:31.154Z,10.46
2023-05-25T00:17:31.107Z,10.44
2023-05-25T00:18:31.082Z,10.42
2023-05-25T00:19:31.068Z,10.39
2023-05-25T00:20:31.072Z,10.39
2023-05-25T00:21:31.042Z,10.33
2023-05-25T00:22:31.019Z,10.33
2023-05-25T00:23:31.040Z,10.34
2023-05-25T00:24:30.999Z,10.37
2023-05-25T00:25:30.987Z,10.33
2023-05-25T00:26:30.981Z,10.36
2023-05-25T00:27:30.959Z,10.34
2023-05-25T00:28:30.956Z,10.37
2023-05-25T00:29:30.915Z,10.36
2023-05-25T00:30:30.907Z,10.37
2023-05-25T00:31:30.945Z,10.34
2023-05-25T00:32:30.915Z,10.28
2023-05-25T00:33:30.916Z,10.22
2023-05-25T00:34:30.865Z,10.24
2023-05-25T00:35:30.862Z,10.25
2023-05-25T00:36:30.823Z,10.22
2023-05-25T00:37:30.834Z,10.24
2023-05-25T00:38:30.816Z,10.24
2023-05-25T00:39:30.810Z,10.26
2023-05-25T00:40:30.782Z,10.19
2023-05-25T00:41:30.764Z,10.19
2023-05-25T00:42:30.783Z,10.19
2023-05-25T00:43:30.732Z,10.21
2023-05-25T00:44:30.787Z,10.15
2023-05-25T00:45:30.706Z,10.15
2023-05-25T00:46:30.763Z,10.14
2023-05-25T00:47:30.708Z,10.18
2023-05-25T00:48:30.662Z,10.14
2023-05-25T00:49:30.650Z,10.07
2023-05-25T00:50:30.640Z,10.10
2023-05-25T00:51:30.644Z,10.09
2023-05-25T00:52:30.626Z,10.06
2023-05-25T00:53:30.585Z,9.96
2023-05-25T00:54:30.572Z,9.97
2023-05-25T00:55:30.568Z,10.00
2023-05-25T00:56:30.568Z,9.97
2023-05-25T00:57:30.537Z,9.93
2023-05-25T00:58:30.529Z,9.86
2023-05-25T00:59:30.509Z,9.82
2023-05-25T01:00:30.491Z,9.81
2023-05-25T01:01:30.544Z,9.86
2023-05-25T01:02:30.513Z,9.86
2023-05-25T01:03:30.535Z,9.82
2023-05-25T01:04:30.458Z,9.81
2023-05-25T01:05:30.475Z,9.79
2023-05-25T01:06:30.431Z,9.79
2023-05-25T01:07:30.404Z,9.76
2023-05-25T01:08:30.386Z,9.75
2023-05-25T01:09:30.381Z,9.76
2023-05-25T01:10:30.397Z,9.79
2023-05-25T01:11:30.355Z,9.75
2023-05-25T01:12:30.338Z,9.76
2023-05-25T01:13:30.338Z,9.73
2023-05-25T01:14:30.321Z,9.63
2023-05-25T01:15:30.310Z,9.64
2023-05-25T01:16:30.304Z,9.66
2023-05-25T01:17:29.849Z,9.64
2023-05-25T01:18:30.260Z,9.61
2023-05-25T01:19:30.255Z,9.61
2023-05-25T01:20:30.298Z,9.60
2023-05-25T01:21:30.220Z,9.63
2023-05-25T01:22:30.205Z,9.63
2023-05-25T01:23:30.194Z,9.64
2023-05-25T01:24:30.192Z,9.63
2023-05-25T01:25:30.175Z,9.63
2023-05-25T01:26:30.150Z,9.64
2023-05-25T01:27:30.140Z,9.64
2023-05-25T01:28:30.117Z,9.66
2023-05-25T01:29:30.130Z,9.63
2023-05-25T01:30:30.090Z,9.50
2023-05-25T01:31:30.129Z,9.52
2023-05-25T01:32:30.082Z,9.50
2023-05-25T01:33:30.058Z,9.50
2023-05-25T01:34:30.059Z,9.46
2023-05-25T01:35:30.033Z,9.46
2023-05-25T01:36:30.022Z,9.49
2023-05-25T01:37:30.015Z,9.46
2023-05-25T01:38:29.980Z,9.39
2023-05-25T01:39:29.979Z,9.34
2023-05-25T01:40:29.954Z,9.34
2023-05-25T01:41:29.945Z,9.32
2023-05-25T01:42:29.964Z,9.34
2023-05-25T01:43:29.926Z,9.34
2023-05-25T01:44:29.908Z,9.31
2023-05-25T01:45:29.932Z,9.31
2023-05-25T01:46:29.906Z,9.28
2023-05-25T01:47:29.884Z,9.28
2023-05-25T01:48:29.847Z,9.32
2023-05-25T01:49:29.820Z,9.34
2023-05-25T01:50:29.865Z,9.31
2023-05-25T01:51:29.828Z,9.30
2023-05-25T01:52:29.902Z,9.21
2023-05-25T01:53:29.811Z,9.21
2023-05-25T01:54:29.753Z,9.25
2023-05-25T01:55:29.765Z,9.20
2023-05-25T01:56:29.745Z,9.20
2023-05-25T01:57:29.751Z,9.21
2023-05-25T01:58:29.709Z,9.18
2023-05-25T01:59:29.698Z,9.15
2023-05-25T02:00:29.669Z,9.13
2023-05-25T02:01:29.738Z,9.12
2023-05-25T02:02:29.670Z,9.12
2023-05-25T02:03:29.639Z,9.13
2023-05-25T02:04:29.638Z,9.13
2023-05-25T02:05:29.607Z,9.16
2023-05-25T02:06:29.625Z,9.20
2023-05-25T02:07:29.605Z,9.23
2023-05-25T02:08:29.091Z,9.24
2023-05-25T02:09:29.568Z,9.23
2023-05-25T02:10:29.566Z,9.24
2023-05-25T02:11:29.594Z,9.28
2023-05-25T02:12:29.521Z,9.25
2023-05-25T02:13:29.518Z,9.28
2023-05-25T02:14:28.212Z,9.34
2023-05-25T02:15:29.481Z,9.38
2023-05-25T02:16:29.586Z,9.34
2023-05-25T02:17:29.478Z,9.35
2023-05-25T02:18:29.443Z,9.31
2023-05-25T02:19:29.441Z,9.31
2023-05-25T02:20:27.960Z,9.28
2023-05-25T02:21:29.429Z,9.31
2023-05-25T02:22:29.389Z,9.28
2023-05-25T02:23:29.364Z,9.30
2023-05-25T02:24:29.352Z,9.28
2023-05-25T02:25:29.356Z,9.28
2023-05-25T02:26:29.342Z,9.25
2023-05-25T02:27:29.314Z,9.23
2023-05-25T02:28:29.312Z,9.21
2023-05-25T02:29:29.293Z,9.21
2023-05-25T02:30:29.344Z,9.18
2023-05-25T02:31:29.322Z,9.15
2023-05-25T02:32:29.291Z,9.13
2023-05-25T02:33:29.245Z,9.10
2023-05-25T02:34:29.233Z,9.09
2023-05-25T02:35:29.233Z,8.96
2023-05-25T02:36:29.184Z,8.91
2023-05-25T02:37:29.209Z,8.87
2023-05-25T02:38:29.174Z,8.87
2023-05-25T02:39:29.166Z,8.88
2023-05-25T02:40:29.150Z,8.87
2023-05-25T02:41:29.131Z,8.87
2023-05-25T02:42:29.122Z,8.84
2023-05-25T02:43:29.109Z,8.79
2023-05-25T02:44:29.125Z,8.75
2023-05-25T02:45:29.095Z,8.73
2023-05-25T02:46:29.116Z,8.76
2023-05-25T02:47:29.099Z,8.81
2023-05-25T02:48:29.069Z,8.81
2023-05-25T02:49:29.037Z,8.86
2023-05-25T02:50:29.031Z,8.90
2023-05-25T02:51:29.004Z,8.87
2023-05-25T02:52:29.003Z,8.88
2023-05-25T02:53:29.003Z,8.90
2023-05-25T02:54:29.014Z,8.90
2023-05-25T02:55:28.970Z,8.87
2023-05-25T02:56:28.953Z,8.90
2023-05-25T02:57:28.955Z,8.90
2023-05-25T02:58:28.965Z,8.94
2023-05-25T02:59:28.968Z,9.04
2023-05-25T03:00:28.910Z,9.02
2023-05-25T03:01:28.960Z,9.04
2023-05-25T03:02:28.935Z,9.02
2023-05-25T03:03:28.886Z,9.02
2023-05-25T03:04:28.813Z,9.01
2023-05-25T03:05:28.805Z,9.01
2023-05-25T03:06:28.797Z,9.02
2023-05-25T03:07:28.800Z,9.04
2023-05-25T03:08:28.801Z,9.06
2023-05-25T03:09:28.759Z,9.05
2023-05-25T03:10:28.778Z,9.02
2023-05-25T03:11:28.722Z,9.01
2023-05-25T03:12:28.710Z,9.05
2023-05-25T03:13:28.705Z,9.06
2023-05-25T03:14:28.684Z,9.04
2023-05-25T03:15:28.660Z,9.06
2023-05-25T03:16:28.722Z,9.04
2023-05-25T03:17:28.742Z,9.04
2023-05-25T03:18:28.657Z,9.06
2023-05-25T03:19:28.129Z,9.02
2023-05-25T03:20:28.610Z,9.02
2023-05-25T03:21:28.609Z,9.01
2023-05-25T03:22:28.580Z,9.06
2023-05-25T03:23:28.548Z,9.01
2023-05-25T03:24:28.548Z,8.94
2023-05-25T03:25:28.541Z,8.91
2023-05-25T03:26:28.514Z,8.88
2023-05-25T03:27:28.519Z,8.86
2023-05-25T03:28:28.479Z,8.88
2023-05-25T03:29:28.484Z,8.87
2023-05-25T03:30:28.483Z,8.87
2023-05-25T03:31:28.470Z,8.91
2023-05-25T03:32:28.505Z,8.93
2023-05-25T03:33:28.421Z,8.91
2023-05-25T03:34:28.415Z,8.88
2023-05-25T03:35:28.424Z,8.88
2023-05-25T03:36:28.393Z,8.83
2023-05-25T03:37:28.392Z,8.79
2023-05-25T03:38:28.357Z,8.78
2023-05-25T03:39:28.348Z,8.83
2023-05-25T03:40:28.335Z,8.81
2023-05-25T03:41:28.330Z,8.79
2023-05-25T03:42:28.328Z,8.79
2023-05-25T03:43:28.292Z,8.81
2023-05-25T03:44:28.263Z,8.78
2023-05-25T03:45:28.306Z,8.78
2023-05-25T03:46:28.412Z,8.76
2023-05-25T03:47:28.264Z,8.75
2023-05-25T03:48:28.257Z,8.76
2023-05-25T03:49:28.235Z,8.79
2023-05-25T03:50:28.222Z,8.79
2023-05-25T03:51:28.225Z,8.81
2023-05-25T03:52:28.165Z,8.84
2023-05-25T03:53:28.172Z,8.83
2023-05-25T03:54:28.166Z,8.83
2023-05-25T03:55:28.152Z,8.84
2023-05-25T03:56:28.147Z,8.86
2023-05-25T03:57:28.101Z,8.88
2023-05-25T03:58:28.118Z,8.93
2023-05-25T03:59:28.132Z,8.97
2023-05-25T04:00:28.073Z,8.97
2023-05-25T04:01:28.051Z,8.99
2023-05-25T04:02:28.142Z,9.01
2023-05-25T04:03:28.204Z,9.01
2023-05-25T04:04:28.055Z,8.99
2023-05-25T04:05:27.992Z,8.99
2023-05-25T04:06:27.977Z,8.96
2023-05-25T04:07:27.985Z,8.97
2023-05-25T04:08:27.949Z,9.02
2023-05-25T04:09:27.941Z,9.01
2023-05-25T04:10:27.951Z,8.99
2023-05-25T04:11:27.904Z,9.01
2023-05-25T04:12:27.902Z,9.04
2023-05-25T04:13:27.886Z,9.05
2023-05-25T04:14:27.888Z,9.02
2023-05-25T04:15:27.885Z,9.04
2023-05-25T04:16:27.940Z,9.09
2023-05-25T04:17:27.863Z,9.12
2023-05-25T04:18:27.829Z,9.21
2023-05-25T04:19:27.818Z,9.23
2023-05-25T04:20:27.828Z,9.30
2023-05-25T04:21:27.787Z,9.30
2023-05-25T04:22:27.782Z,9.35
2023-05-25T04:23:27.765Z,9.35
2023-05-25T04:24:27.735Z,9.40
2023-05-25T04:25:29.524Z,9.35
2023-05-25T04:26:27.704Z,9.35
2023-05-25T04:27:27.687Z,9.35
2023-05-25T04:28:27.683Z,9.40
2023-05-25T04:29:27.663Z,9.43
2023-05-25T04:30:27.661Z,9.46
2023-05-25T04:31:27.727Z,9.50
2023-05-25T04:32:27.642Z,9.46
2023-05-25T04:33:27.630Z,9.45
2023-05-25T04:34:27.604Z,9.43
2023-05-25T04:35:27.582Z,9.38
2023-05-25T04:36:27.575Z,9.40
2023-05-25T04:37:27.687Z,9.42
2023-05-25T04:38:27.562Z,9.40
2023-05-25T04:39:27.533Z,9.48
2023-05-25T04:40:27.529Z,9.56
2023-05-25T04:41:27.496Z,9.49
2023-05-25T04:42:27.510Z,9.60
2023-05-25T04:43:27.457Z,9.70
2023-05-25T04:44:27.454Z,9.78
2023-05-25T04:45:27.452Z,9.97
2023-05-25T04:46:27.493Z,10.09
2023-05-25T04:47:27.461Z,10.14
2023-05-25T04:48:27.408Z,10.25
2023-05-25T04:49:27.397Z,10.42
2023-05-25T04:50:27.393Z,10.53
2023-05-25T04:51:27.374Z,10.60
2023-05-25T04:52:27.371Z,10.60
2023-05-25T04:53:25.538Z,10.47
2023-05-25T04:54:27.325Z,10.66
2023-05-25T04:55:27.355Z,10.76
2023-05-25T04:56:27.312Z,10.88
2023-05-25T04:57:27.295Z,10.94
2023-05-25T04:58:27.279Z,11.03
2023-05-25T04:59:27.253Z,11.03
2023-05-25T05:00:27.258Z,11.16
2023-05-25T05:01:27.292Z,11.27
2023-05-25T05:02:27.263Z,11.34
2023-05-25T05:03:27.274Z,11.32
2023-05-25T05:04:27.197Z,11.36
2023-05-25T05:05:27.183Z,11.38
2023-05-25T05:06:27.183Z,11.41
2023-05-25T05:07:27.137Z,11.57
2023-05-25T05:08:27.137Z,11.68
2023-05-25T05:09:27.116Z,11.68
2023-05-25T05:10:27.108Z,11.68
2023-05-25T05:11:27.103Z,11.83
2023-05-25T05:12:27.088Z,11.90
2023-05-25T05:13:27.066Z,12.05
2023-05-25T05:14:27.058Z,12.09
2023-05-25T05:15:27.045Z,12.30
2023-05-25T05:16:27.084Z,12.33
2023-05-25T05:17:27.047Z,12.46
2023-05-25T05:18:27.007Z,12.79
2023-05-25T05:19:27.007Z,13.03
2023-05-25T05:20:27.010Z,12.66
2023-05-25T05:21:26.963Z,12.89
2023-05-25T05:22:26.999Z,13.18
2023-05-25T05:23:26.938Z,13.30
2023-05-25T05:24:26.915Z,13.63
2023-05-25T05:25:26.912Z,13.76
2023-05-25T05:26:26.888Z,13.95
2023-05-25T05:27:26.878Z,13.89
2023-05-25T05:28:26.874Z,14.04
2023-05-25T05:29:26.953Z,14.02
2023-05-25T05:30:26.849Z,14.38
2023-05-25T05:31:26.824Z,14.35
2023-05-25T05:32:26.818Z,14.38
2023-05-25T05:33:26.893Z,14.06
2023-05-25T05:34:26.801Z,13.43
2023-05-25T05:35:26.784Z,12.99
2023-05-25T05:36:26.759Z,12.45
2023-05-25T05:37:26.748Z,11.94
2023-05-25T05:38:26.739Z,11.77
2023-05-25T05:39:26.750Z,11.67
2023-05-25T05:40:26.709Z,11.46
2023-05-25T05:41:26.191Z,11.53
2023-05-25T05:42:26.671Z,11.50
2023-05-25T05:43:26.700Z,11.49
2023-05-25T05:44:29.077Z,11.46
2023-05-25T05:45:26.628Z,11.29
2023-05-25T05:46:26.627Z,11.34
2023-05-25T05:47:26.647Z,11.36
2023-05-25T05:48:26.591Z,11.46
2023-05-25T05:49:26.562Z,11.49
2023-05-25T05:50:26.544Z,11.46
2023-05-25T05:51:26.542Z,11.49
2023-05-25T05:52:26.526Z,11.53
2023-05-25T05:53:26.523Z,11.57
2023-05-25T05:54:26.514Z,11.61
2023-05-25T05:55:26.518Z,11.62
2023-05-25T05:56:26.496Z,11.68
2023-05-25T05:57:26.495Z,11.74
2023-05-25T05:58:26.449Z,11.68
2023-05-25T05:59:26.438Z,11.67
2023-05-25T06:00:26.423Z,11.71
2023-05-25T06:01:26.409Z,11.74
2023-05-25T06:02:26.453Z,11.72
2023-05-25T06:03:26.419Z,11.80
2023-05-25T06:04:26.388Z,11.89
2023-05-25T06:05:26.387Z,11.99
2023-05-25T06:06:26.353Z,12.04
2023-05-25T06:07:26.328Z,12.09
2023-05-25T06:08:26.336Z,12.06
2023-05-25T06:09:26.292Z,12.15
2023-05-25T06:10:26.288Z,12.23
2023-05-25T06:11:26.271Z,12.26
2023-05-25T06:12:26.282Z,12.37
2023-05-25T06:13:26.254Z,12.44
2023-05-25T06:14:28.295Z,12.54
2023-05-25T06:15:26.229Z,12.85
2023-05-25T06:16:26.238Z,13.41
2023-05-25T06:17:26.256Z,14.13
2023-05-25T06:18:26.205Z,14.86
2023-05-25T06:19:26.151Z,15.54
2023-05-25T06:20:26.212Z,16.04
2023-05-25T06:21:26.142Z,16.68
2023-05-25T06:22:26.130Z,17.26
2023-05-25T06:23:26.129Z,17.57
2023-05-25T06:24:26.106Z,17.35
2023-05-25T06:25:26.091Z,17.25
2023-05-25T06:26:26.100Z,17.78
2023-05-25T06:27:26.064Z,18.06
2023-05-25T06:28:26.038Z,18.27
2023-05-25T06:29:26.029Z,18.04
2023-05-25T06:30:26.020Z,17.55
2023-05-25T06:31:26.036Z,17.76
2023-05-25T06:32:26.011Z,18.29
2023-05-25T06:33:25.976Z,18.50
2023-05-25T06:34:25.955Z,18.00
2023-05-25T06:35:25.955Z,18.50
2023-05-25T06:36:27.391Z,18.42
2023-05-25T06:37:25.926Z,18.70
2023-05-25T06:38:25.909Z,18.19
2023-05-25T06:39:25.887Z,18.47
2023-05-25T06:40:25.883Z,18.83
2023-05-25T06:41:25.876Z,18.67
2023-05-25T06:42:25.864Z,18.55
2023-05-25T06:43:25.837Z,18.54
2023-05-25T06:44:25.832Z,18.70
2023-05-25T06:45:25.826Z,18.90
2023-05-25T06:46:25.830Z,18.86
2023-05-25T06:47:25.795Z,19.39
2023-05-25T06:48:25.764Z,19.58
2023-05-25T06:49:25.769Z,19.93
2023-05-25T06:50:25.784Z,19.93
2023-05-25T06:51:25.710Z,19.65
2023-05-25T06:52:25.711Z,19.73
2023-05-25T06:53:25.699Z,19.61
2023-05-25T06:54:25.680Z,19.23
2023-05-25T06:55:25.675Z,19.25
2023-05-25T06:56:25.655Z,19.55
2023-05-25T06:57:25.637Z,19.70
2023-05-25T06:58:25.622Z,19.75
2023-05-25T06:59:25.611Z,20.05
2023-05-25T07:00:25.614Z,19.97
2023-05-25T07:01:25.662Z,19.53
2023-05-25T07:02:25.581Z,19.79
2023-05-25T07:03:25.564Z,20.24
2023-05-25T07:04:25.576Z,20.47
2023-05-25T07:05:25.571Z,20.83
2023-05-25T07:06:25.533Z,20.79
2023-05-25T07:07:25.487Z,20.91
2023-05-25T07:08:25.494Z,21.01
2023-05-25T07:09:25.058Z,21.30
2023-05-25T07:10:25.528Z,21.23
2023-05-25T07:11:25.450Z,20.93
2023-05-25T07:12:25.441Z,20.90
2023-05-25T07:13:25.434Z,20.59
2023-05-25T07:14:25.439Z,20.49
2023-05-25T07:15:25.409Z,20.74
2023-05-25T07:16:25.449Z,20.90
2023-05-25T07:17:25.502Z,20.74
2023-05-25T07:18:25.366Z,21.06
2023-05-25T07:19:25.351Z,21.11
2023-05-25T07:20:25.460Z,20.64
2023-05-25T07:21:25.327Z,20.41
2023-05-25T07:22:25.308Z,20.84
2023-05-25T07:23:25.293Z,21.30
2023-05-25T07:24:25.287Z,21.05
2023-05-25T07:25:25.286Z,20.98
2023-05-25T07:26:25.248Z,21.24
2023-05-25T07:27:25.263Z,21.46
2023-05-25T07:28:25.248Z,21.72
2023-05-25T07:29:25.208Z,21.61
2023-05-25T07:30:25.230Z,21.66
2023-05-25T07:31:25.239Z,21.38
2023-05-25T07:32:25.215Z,21.42
2023-05-25T07:33:25.171Z,21.59
2023-05-25T07:34:26.528Z,22.07
2023-05-25T07:35:24.625Z,22.06
2023-05-25T07:36:25.163Z,22.09
2023-05-25T07:37:25.116Z,22.20
2023-05-25T07:38:25.096Z,21.64
2023-05-25T07:39:25.072Z,21.82
2023-05-25T07:40:25.067Z,21.50
2023-05-25T07:41:25.085Z,21.85
2023-05-25T07:42:25.049Z,22.09
2023-05-25T07:43:25.036Z,22.54
2023-05-25T07:44:25.012Z,22.68
2023-05-25T07:45:24.980Z,23.17
2023-05-25T07:46:25.165Z,22.57
2023-05-25T07:47:25.019Z,22.60
2023-05-25T07:48:24.958Z,22.82
2023-05-25T07:49:24.948Z,23.02
2023-05-25T07:50:24.939Z,22.84
2023-05-25T07:51:24.929Z,22.93
2023-05-25T07:52:24.903Z,22.87
2023-05-25T07:53:24.877Z,22.32
2023-05-25T07:54:24.879Z,21.78
2023-05-25T07:55:24.859Z,21.39
2023-05-25T07:56:24.858Z,21.66
2023-05-25T07:57:24.835Z,22.35
2023-05-25T07:58:24.824Z,22.65
2023-05-25T07:59:24.801Z,22.75
2023-05-25T08:00:24.810Z,22.94
2023-05-25T08:01:26.900Z,23.24
2023-05-25T08:02:24.851Z,23.42
2023-05-25T08:03:39.873Z,23.57
2023-05-25T08:04:25.787Z,23.65
2023-05-25T08:05:24.761Z,24.13
2023-05-25T08:06:24.726Z,24.08
2023-05-25T08:07:24.722Z,24.07
2023-05-25T08:08:24.740Z,23.75
2023-05-25T08:09:24.690Z,23.64
2023-05-25T08:10:24.669Z,23.50
2023-05-25T08:11:24.689Z,23.68
2023-05-25T08:13:25.616Z,23.53
2023-05-25T08:14:24.617Z,23.46
2023-05-25T08:15:24.600Z,23.07
2023-05-25T08:16:24.657Z,22.39
2023-05-25T08:17:24.663Z,22.06
2023-05-25T08:18:24.555Z,22.49
2023-05-25T08:19:24.543Z,22.49
2023-05-25T08:20:24.589Z,22.92
2023-05-25T08:21:24.525Z,23.24
2023-05-25T08:22:24.515Z,23.47
2023-05-25T08:23:24.487Z,23.31
2023-05-25T08:24:24.494Z,23.04
2023-05-25T08:25:29.415Z,23.24
2023-05-25T08:26:38.323Z,23.42
2023-05-25T08:27:25.435Z,23.80
2023-05-25T08:28:24.409Z,24.16
2023-05-25T08:29:24.424Z,24.02
2023-05-25T08:30:24.410Z,24.32
2023-05-25T08:31:24.096Z,24.67
2023-05-25T08:32:24.424Z,24.80
2023-05-25T08:33:25.986Z,24.08
2023-05-25T08:34:24.342Z,23.90
2023-05-25T08:35:24.327Z,24.17
2023-05-25T08:36:24.322Z,24.19
2023-05-25T08:37:24.301Z,24.04
2023-05-25T08:38:24.304Z,23.95
2023-05-25T08:39:24.279Z,23.19
2023-05-25T08:40:24.270Z,23.55
2023-05-25T08:41:24.255Z,23.35
2023-05-25T08:42:24.241Z,23.31
2023-05-25T08:43:24.233Z,23.75
2023-05-25T08:44:24.209Z,24.20
2023-05-25T08:45:35.316Z,24.22
2023-05-25T08:46:25.213Z,24.04
2023-05-25T08:47:24.183Z,23.64
2023-05-25T08:48:39.472Z,23.62
2023-05-25T08:49:25.232Z,23.22
2023-05-25T08:50:24.129Z,23.77
2023-05-25T08:51:24.143Z,24.24
2023-05-25T08:52:24.145Z,24.17
2023-05-25T08:53:24.105Z,23.90
2023-05-25T08:54:24.095Z,23.57
2023-05-25T08:55:24.074Z,23.38
2023-05-25T08:56:24.053Z,23.47
2023-05-25T08:57:24.068Z,23.04
2023-05-25T08:58:24.051Z,23.07
2023-05-25T08:59:24.024Z,23.39
2023-05-25T09:00:23.510Z,23.77
2023-05-25T09:01:24.048Z,24.17
2023-05-25T09:02:24.026Z,24.71
2023-05-25T09:03:24.025Z,24.56
2023-05-25T09:04:23.954Z,24.02
2023-05-25T09:05:23.951Z,24.14
2023-05-25T09:06:23.933Z,23.83
2023-05-25T09:07:23.927Z,23.85
2023-05-25T09:08:23.901Z,23.94
2023-05-25T09:09:23.902Z,24.00
2023-05-25T09:10:23.879Z,23.82
2023-05-25T09:11:37.316Z,23.68
2023-05-25T09:12:24.861Z,24.05
2023-05-25T09:13:23.864Z,23.87
2023-05-25T09:14:23.828Z,23.86
2023-05-25T09:15:23.815Z,23.76
2023-05-25T09:16:23.840Z,23.71
2023-05-25T09:17:23.789Z,23.76
2023-05-25T09:18:23.811Z,24.08
2023-05-25T09:19:23.766Z,24.10
2023-05-25T09:20:23.749Z,24.27
2023-05-25T09:21:23.737Z,24.37
2023-05-25T09:22:23.740Z,24.50
2023-05-25T09:23:23.734Z,25.10
2023-05-25T09:24:23.689Z,24.04
2023-05-25T09:25:23.714Z,23.82
2023-05-25T09:26:23.681Z,23.60
2023-05-25T09:27:23.677Z,24.02
2023-05-25T09:28:27.304Z,24.19
2023-05-25T09:29:23.633Z,23.65
2023-05-25T09:30:23.632Z,23.60
2023-05-25T09:31:23.764Z,23.87
2023-05-25T09:32:23.648Z,23.43
2023-05-25T09:33:23.587Z,23.26
2023-05-25T09:34:23.617Z,23.20
2023-05-25T09:35:23.585Z,23.62
2023-05-25T09:36:23.682Z,24.01
2023-05-25T09:37:23.739Z,24.19
2023-05-25T09:38:23.728Z,24.22
2023-05-25T09:39:23.715Z,24.39
2023-05-25T09:40:23.497Z,24.27
2023-05-25T09:41:23.482Z,24.10
2023-05-25T09:42:23.479Z,23.87
2023-05-25T09:43:39.707Z,24.23
2023-05-25T09:44:24.461Z,24.38
2023-05-25T09:45:23.450Z,24.26
2023-05-25T09:46:23.505Z,24.38
2023-05-25T09:47:23.441Z,24.27
2023-05-25T09:48:23.402Z,24.34
2023-05-25T09:49:23.403Z,24.24
2023-05-25T09:50:23.405Z,24.20
2023-05-25T09:51:23.374Z,24.42
2023-05-25T09:52:23.347Z,24.59
2023-05-25T09:53:23.347Z,24.47
2023-05-25T09:54:23.328Z,24.90
2023-05-25T09:55:23.316Z,24.98
2023-05-25T09:56:23.295Z,25.49
2023-05-25T09:57:23.286Z,25.53
2023-05-25T09:58:23.265Z,24.68
2023-05-25T09:59:23.569Z,24.35
2023-05-25T10:00:23.233Z,24.44
2023-05-25T10:01:23.269Z,24.52
2023-05-25T10:02:23.224Z,24.52
2023-05-25T10:03:23.293Z,24.41
2023-05-25T10:04:23.261Z,24.53
2023-05-25T10:05:23.181Z,24.52
2023-05-25T10:06:23.187Z,24.91
2023-05-25T10:07:23.254Z,25.30
2023-05-25T10:08:23.158Z,25.19
2023-05-25T10:09:23.198Z,25.13
2023-05-25T10:10:23.127Z,25.13
2023-05-25T10:11:23.122Z,24.92
2023-05-25T10:12:23.116Z,24.97
2023-05-25T10:13:23.108Z,24.80
2023-05-25T10:14:23.085Z,24.88
2023-05-25T10:15:23.047Z,25.39
2023-05-25T10:16:23.089Z,25.90
2023-05-25T10:17:23.095Z,26.01
2023-05-25T10:18:23.030Z,26.18
2023-05-25T10:19:23.037Z,26.18
2023-05-25T10:20:23.053Z,26.24
2023-05-25T10:21:22.959Z,26.25
2023-05-25T10:22:22.969Z,26.20
2023-05-25T10:23:22.976Z,25.62
2023-05-25T10:24:22.961Z,25.69
2023-05-25T10:25:22.931Z,25.75
2023-05-25T10:26:22.920Z,25.83
2023-05-25T10:27:27.620Z,26.29
2023-05-25T10:28:23.884Z,26.22
2023-05-25T10:29:22.869Z,25.99
2023-05-25T10:30:22.873Z,26.12
2023-05-25T10:31:22.913Z,25.67
2023-05-25T10:32:22.902Z,25.57
2023-05-25T10:33:22.832Z,25.67
2023-05-25T10:34:22.820Z,25.79
2023-05-25T10:35:22.811Z,25.89
2023-05-25T10:36:22.788Z,26.02
2023-05-25T10:37:22.807Z,26.28
2023-05-25T10:38:22.763Z,26.15
2023-05-25T10:39:22.740Z,26.01
2023-05-25T10:40:22.740Z,26.35
2023-05-25T10:41:22.722Z,26.28
2023-05-25T10:42:22.718Z,26.12
2023-05-25T10:43:22.707Z,26.18
2023-05-25T10:44:22.693Z,25.86
2023-05-25T10:45:22.679Z,25.87
2023-05-25T10:46:22.804Z,25.75
2023-05-25T10:47:22.760Z,25.57
2023-05-25T10:48:22.666Z,25.80
2023-05-25T10:49:22.646Z,25.98
2023-05-25T10:50:22.608Z,25.98
2023-05-25T10:51:22.600Z,25.87
2023-05-25T10:52:22.611Z,26.11
2023-05-25T10:53:22.569Z,26.21
2023-05-25T10:54:22.554Z,26.44
2023-05-25T10:55:22.552Z,26.72
2023-05-25T10:56:22.531Z,26.27
2023-05-25T10:57:22.513Z,25.93
2023-05-25T10:58:22.490Z,26.28
2023-05-25T10:59:22.484Z,26.46
2023-05-25T11:00:22.517Z,26.69
2023-05-25T11:01:22.533Z,26.40
2023-05-25T11:02:22.492Z,26.35
2023-05-25T11:03:22.456Z,26.39
2023-05-25T11:04:22.461Z,26.54
2023-05-25T11:05:22.425Z,26.76
2023-05-25T11:06:22.389Z,26.81
2023-05-25T11:07:22.392Z,27.24
2023-05-25T11:08:22.381Z,27.51
2023-05-25T11:09:22.368Z,27.14
2023-05-25T11:10:22.402Z,27.20
2023-05-25T11:11:22.378Z,27.05
2023-05-25T11:12:22.320Z,27.14
2023-05-25T11:13:22.318Z,26.80
2023-05-25T11:14:22.318Z,26.94
2023-05-25T11:15:22.313Z,26.99
2023-05-25T11:16:22.407Z,27.46
2023-05-25T11:17:22.312Z,27.43
2023-05-25T11:18:22.238Z,27.05
2023-05-25T11:19:22.262Z,25.97
2023-05-25T11:20:22.254Z,26.04
2023-05-25T11:21:22.233Z,25.69
2023-05-25T11:22:22.203Z,25.27
2023-05-25T11:23:22.179Z,25.74
2023-05-25T11:24:22.190Z,25.68
2023-05-25T11:25:22.161Z,25.93
2023-05-25T11:26:22.152Z,26.40
2023-05-25T11:27:22.132Z,26.43
2023-05-25T11:28:22.116Z,26.80
2023-05-25T11:29:22.116Z,27.06
2023-05-25T11:30:22.083Z,27.17
2023-05-25T11:31:22.116Z,27.23
2023-05-25T11:32:22.219Z,27.10
2023-05-25T11:33:22.063Z,26.95
2023-05-25T11:34:22.090Z,27.06
2023-05-25T11:35:22.046Z,27.10
2023-05-25T11:36:22.046Z,26.84
2023-05-25T11:37:22.030Z,27.01
2023-05-25T11:38:21.997Z,26.98
2023-05-25T11:39:23.289Z,25.65
2023-05-25T11:40:21.967Z,25.80
2023-05-25T11:41:21.966Z,26.20
2023-05-25T11:42:21.935Z,26.50
2023-05-25T11:43:21.959Z,26.55
2023-05-25T11:44:21.914Z,26.40
2023-05-25T11:45:21.914Z,26.81
2023-05-25T11:46:21.932Z,26.99
2023-05-25T11:47:21.898Z,26.95
2023-05-25T11:48:21.470Z,27.23
2023-05-25T11:49:21.925Z,27.36
2023-05-25T11:50:21.865Z,27.53
2023-05-25T11:51:21.851Z,27.79
2023-05-25T11:52:21.845Z,27.85
2023-05-25T11:53:21.824Z,27.48
2023-05-25T11:54:21.801Z,27.48
2023-05-25T11:55:21.809Z,27.42
2023-05-25T11:56:34.217Z,27.14
2023-05-25T11:57:22.785Z,26.99
2023-05-25T11:58:20.059Z,26.81
2023-05-25T11:59:21.744Z,26.69
2023-05-25T12:00:21.712Z,26.08
2023-05-25T12:01:21.713Z,26.18
2023-05-25T12:02:21.710Z,26.39
2023-05-25T12:03:19.923Z,26.57
2023-05-25T12:04:24.002Z,26.32
2023-05-25T12:05:21.713Z,25.61
2023-05-25T12:06:21.659Z,25.37
2023-05-25T12:07:21.635Z,25.37
2023-05-25T12:08:21.619Z,25.87
2023-05-25T12:09:21.598Z,25.91
2023-05-25T12:10:21.581Z,26.22
2023-05-25T12:11:21.588Z,26.31
2023-05-25T12:12:21.562Z,26.61
2023-05-25T12:13:21.113Z,27.13
2023-05-25T12:14:21.022Z,26.87
2023-05-25T12:15:21.819Z,27.09
2023-05-25T12:16:21.589Z,26.61
2023-05-25T12:17:21.578Z,25.97
2023-05-25T12:18:21.491Z,26.46
2023-05-25T12:19:21.475Z,26.64
2023-05-25T12:20:21.610Z,26.92
2023-05-25T12:21:21.467Z,26.69
2023-05-25T12:22:21.432Z,26.24
2023-05-25T12:23:21.435Z,26.50
2023-05-25T12:24:21.424Z,26.17
2023-05-25T12:25:21.405Z,26.46
2023-05-25T12:26:21.374Z,26.36
2023-05-25T12:27:21.373Z,26.55
2023-05-25T12:28:21.367Z,26.81
2023-05-25T12:29:21.382Z,26.94
2023-05-25T12:30:21.397Z,26.73
2023-05-25T12:31:21.518Z,26.54
2023-05-25T12:32:21.346Z,26.39
2023-05-25T12:33:21.286Z,26.79
2023-05-25T12:34:21.285Z,26.99
2023-05-25T12:35:20.965Z,26.94
2023-05-25T12:36:21.265Z,25.84
2023-05-25T12:37:21.379Z,25.80
2023-05-25T12:38:21.228Z,26.12
2023-05-25T12:39:23.205Z,26.31
2023-05-25T12:40:21.216Z,26.43
2023-05-25T12:41:21.204Z,26.58
2023-05-25T12:42:21.196Z,26.36
2023-05-25T12:43:21.139Z,26.73
2023-05-25T12:44:21.172Z,26.92
2023-05-25T12:45:21.137Z,26.80
2023-05-25T12:46:21.675Z,26.98
2023-05-25T12:47:21.114Z,27.01
2023-05-25T12:48:21.141Z,26.95
2023-05-25T12:49:21.103Z,26.68
2023-05-25T12:50:21.096Z,26.57
2023-05-25T12:51:21.041Z,26.50
2023-05-25T12:52:21.038Z,26.84
2023-05-25T12:53:21.028Z,26.89
2023-05-25T12:54:21.024Z,26.98
2023-05-25T12:55:21.013Z,26.46
2023-05-25T12:56:20.991Z,26.57
2023-05-25T12:57:20.973Z,26.83
2023-05-25T12:58:20.484Z,26.74
2023-05-25T12:59:20.958Z,27.01
2023-05-25T13:00:21.002Z,27.29
2023-05-25T13:01:21.049Z,27.05